Flight Track Log - Related Links

Times and Time Zones

All times are in EDT time to prevent confusion due to time zone crossing. See the ASQ5963 flight status page for this flight to view local times or setup timezone preferences in your user account.

Time Position Orientation Groundspeed Altitude Reporting Facility
EDT Latitude Longitude Course Direction KTS MPH feet Rate Location/Type
Fri 01:28:40 PM 40.6667 -74.1833 57° Northeast 143 165 900  Level New York TRACON
Fri 01:29:40 PM 40.6333 -74.2167 217° Southwest 233 268 2,900 2,619 Climbing New York TRACON
Fri 01:30:46 PM 40.7000 -74.2000 11° North 280 322 6,400 2,857 Climbing New York TRACON
Fri 01:31:00 PM 40.8167 -73.8783 90° East  Level FlightAware Approximate
Fri 01:31:46 PM 40.7333 -74.1167 62° Northeast 295 339 8,900  Level New York TRACON
Fri 01:32:00 PM 40.8509 -73.7816 56° Northeast  Level FlightAware Approximate
Fri 01:32:46 PM 40.7667 -74.0000 69° East 347 399 10,100  Level New York TRACON
Fri 01:33:00 PM 40.8987 -73.6859 57° Northeast  Level FlightAware Approximate
Fri 01:33:46 PM 40.8333 -73.8833 53° Northeast 396 456 10,300  Level New York TRACON
Fri 01:34:40 PM 40.9000 -73.7833 49° Northeast 392 451 11,600 1,579 Climbing New York TRACON
Fri 01:35:40 PM 40.9833 -73.7000 37° Northeast 385 443 13,300 1,010 Climbing New York TRACON
Fri 01:38:08 PM 41.2094 -73.5189 31° Northeast 435 501 15,100 490 Climbing Boston Center
Fri 01:39:08 PM 41.3311 -73.4186 32° Northeast 421 484 15,000 -50 Descending Boston Center
Fri 01:40:08 PM 41.4236 -73.3453 31° Northeast 421 484 15,000  Level Boston Center
Fri 01:41:08 PM 41.5447 -73.2972 17° North 416 479 15,000  Level Boston Center
Fri 01:42:08 PM 41.6300 -73.3233 347° North 393 452 15,000  Level Boston Center
Fri 01:43:20 PM 41.7269 -73.4331 320° Northwest 377 434 15,000 -455 Level Boston Center
Fri 01:44:20 PM 41.8239 -73.5433 320° Northwest 383 441 14,000 -900 Descending Boston Center
Fri 01:45:20 PM 41.9236 -73.5925 340° North 372 428 13,200 -950 Descending Boston Center
Fri 01:46:20 PM 42.0294 -73.6167 350° North 372 428 12,100 -850 Descending Boston Center
Fri 01:47:20 PM 42.1231 -73.6436 348° North 379 436 11,500 -550 Descending Boston Center
Fri 01:48:20 PM 42.2250 -73.6708 349° North 379 436 11,000 -400 Descending Boston Center
Fri 01:49:20 PM 42.3292 -73.6617 North 369 425 10,700 -600 Descending Boston Center
Fri 01:50:00 PM 42.4003 -73.6433 11° North 336 387 10,000 -1,320 Descending Boston Center
Fri 01:51:00 PM 42.4817 -73.6253 North 287 330 8,500 -1,587 Descending Boston Center
Fri 01:52:01 PM 42.5589 -73.6239 North 274 315 6,800 -1,721 Descending Boston Center
Fri 01:53:02 PM 42.6317 -73.6422 350° North 271 312 5,000 -1,418 Descending Boston Center
Fri 01:53:51 PM 42.6939 -73.6606 348° North 262 302 4,200 -991 Descending Boston Center
Fri 01:54:57 PM 42.7686 -73.6875 345° North 242 278 3,100 -1,000 Descending Boston Center

Login

Don't have an account? Register now (free) for customized features, flight alerts, and more!